createdAt,value
2023-01-19T00:00:54.963Z,1.10
2023-01-19T00:03:22.111Z,1.10
2023-01-19T00:05:49.235Z,1.10
2023-01-19T00:08:16.284Z,1.20
2023-01-19T00:10:48.647Z,1.10
2023-01-19T00:13:15.871Z,1.10
2023-01-19T00:15:43.189Z,1.30
2023-01-19T00:18:11.154Z,1.10
2023-01-19T00:20:39.767Z,1.30
2023-01-19T00:23:08.255Z,1.10
2023-01-19T00:25:36.239Z,1.10
2023-01-19T00:28:03.289Z,1.10
2023-01-19T00:30:30.538Z,1.10
2023-01-19T00:32:58.169Z,1.50
2023-01-19T00:35:25.763Z,1.20
2023-01-19T00:37:52.701Z,1.20
2023-01-19T00:40:19.763Z,1.20
2023-01-19T00:42:48.565Z,1.20
2023-01-19T00:45:18.636Z,1.20
2023-01-19T00:47:47.670Z,1.20
2023-01-19T00:50:19.281Z,1.20
2023-01-19T00:52:46.272Z,1.50
2023-01-19T00:55:14.836Z,1.20
2023-01-19T00:57:42.584Z,1.20
2023-01-19T01:00:15.782Z,1.20
2023-01-19T01:02:44.193Z,1.20
2023-01-19T01:05:12.084Z,1.20
2023-01-19T01:07:40.823Z,1.40
2023-01-19T01:10:09.703Z,1.30
2023-01-19T01:12:37.864Z,1.30
2023-01-19T01:15:06.965Z,1.50
2023-01-19T01:17:35.027Z,1.30
2023-01-19T01:20:01.961Z,1.30
2023-01-19T01:22:28.907Z,1.40
2023-01-19T01:24:55.938Z,1.50
2023-01-19T01:27:22.777Z,1.40
2023-01-19T01:29:49.824Z,1.60
2023-01-19T01:32:17.112Z,1.50
2023-01-19T01:34:44.193Z,1.50
2023-01-19T01:37:11.385Z,1.50
2023-01-19T01:39:38.402Z,1.50
2023-01-19T01:42:16.509Z,1.50
2023-01-19T01:44:55.252Z,1.50
2023-01-19T01:47:34.086Z,1.60
2023-01-19T01:50:17.686Z,1.50
2023-01-19T01:53:07.527Z,1.60
2023-01-19T01:55:40.492Z,1.60
2023-01-19T01:58:09.222Z,1.50
2023-01-19T02:00:55.654Z,1.60
2023-01-19T02:03:25.140Z,1.60
2023-01-19T02:05:53.832Z,1.90
2023-01-19T02:08:45.746Z,1.50
2023-01-19T02:11:32.107Z,1.50
2023-01-19T02:13:59.069Z,1.50
2023-01-19T02:16:26.025Z,1.50
2023-01-19T02:18:53.210Z,1.50
2023-01-19T02:21:27.775Z,1.60
2023-01-19T02:23:56.755Z,1.60
2023-01-19T02:26:27.099Z,1.60
2023-01-19T02:29:00.572Z,1.60
2023-01-19T02:31:30.178Z,1.60
2023-01-19T02:33:57.975Z,1.60
2023-01-19T02:36:59.044Z,1.50
2023-01-19T02:39:33.269Z,1.50
2023-01-19T02:42:04.327Z,1.50
2023-01-19T02:44:32.938Z,1.60
2023-01-19T02:46:59.912Z,1.20
2023-01-19T02:49:30.326Z,1.50
2023-01-19T02:51:58.733Z,1.60
2023-01-19T02:55:00.954Z,1.60
2023-01-19T02:58:04.519Z,1.60
2023-01-19T03:00:49.020Z,1.60
2023-01-19T03:03:40.386Z,1.60
2023-01-19T03:06:22.557Z,1.70
2023-01-19T03:08:59.031Z,1.60
2023-01-19T03:11:33.022Z,1.60
2023-01-19T03:14:27.021Z,1.60
2023-01-19T03:16:58.975Z,1.60
2023-01-19T03:19:35.739Z,1.60
2023-01-19T03:22:17.609Z,1.60
2023-01-19T03:24:46.495Z,1.60
2023-01-19T03:27:32.879Z,1.60
2023-01-19T03:30:05.660Z,1.60
2023-01-19T03:32:37.654Z,1.60
2023-01-19T03:35:11.816Z,1.60
2023-01-19T03:37:42.769Z,1.50
2023-01-19T03:40:11.060Z,1.50
2023-01-19T03:42:40.478Z,1.60
2023-01-19T03:45:09.066Z,1.60
2023-01-19T03:47:36.870Z,1.60
2023-01-19T03:50:08.999Z,1.60
2023-01-19T03:52:35.938Z,1.60
2023-01-19T03:55:05.528Z,1.60
2023-01-19T03:57:32.736Z,1.60
2023-01-19T03:59:59.648Z,1.90
2023-01-19T04:02:27.150Z,1.50
2023-01-19T04:04:54.125Z,1.50
2023-01-19T04:07:23.836Z,1.60
2023-01-19T04:09:50.805Z,1.60
2023-01-19T04:12:17.678Z,1.60
2023-01-19T04:14:44.534Z,1.60
2023-01-19T05:12:37.326Z,1.50
2023-01-19T05:15:04.834Z,1.50
2023-01-19T05:17:31.847Z,1.50
2023-01-19T05:19:58.775Z,1.50
2023-01-19T05:22:25.948Z,1.50
2023-01-19T05:24:52.863Z,1.50
2023-01-19T05:27:20.933Z,1.60
2023-01-19T06:12:22.619Z,1.50
2023-01-19T06:14:49.746Z,1.50
2023-01-19T06:17:16.780Z,1.50
2023-01-19T06:19:43.936Z,1.50
2023-01-19T06:22:10.871Z,1.80
2023-01-19T08:14:16.212Z,2.90
2023-01-19T08:16:47.992Z,3.10
2023-01-19T08:19:15.106Z,3.00
2023-01-19T08:21:43.292Z,3.10
2023-01-19T09:00:45.665Z,3.10
2023-01-19T09:03:13.956Z,3.10
2023-01-19T09:05:42.946Z,3.10
2023-01-19T09:08:18.868Z,3.30
2023-01-19T09:13:44.444Z,3.20
2023-01-19T09:16:18.880Z,3.10
2023-01-19T09:18:57.185Z,3.10
2023-01-19T09:21:34.144Z,3.20
2023-01-19T09:24:15.920Z,3.50
2023-01-19T09:26:43.397Z,3.70
2023-01-19T09:29:10.338Z,3.90
2023-01-19T09:31:41.954Z,3.70
2023-01-19T09:34:09.217Z,3.80
2023-01-19T09:36:39.918Z,4.10
2023-01-19T09:39:10.310Z,3.90
2023-01-19T09:41:42.341Z,4.30
2023-01-19T09:44:35.513Z,4.30
2023-01-19T09:49:51.990Z,4.80
2023-01-19T09:52:21.243Z,5.00
2023-01-19T10:01:23.835Z,4.90
2023-01-19T10:04:17.563Z,4.90
2023-01-19T10:06:58.532Z,4.90
2023-01-19T10:09:45.342Z,4.80
2023-01-19T10:12:29.420Z,4.90
2023-01-19T10:15:18.905Z,5.00
2023-01-19T10:18:23.841Z,5.10
2023-01-19T10:21:05.371Z,5.30
2023-01-19T10:32:43.399Z,5.60
2023-01-19T10:35:30.694Z,5.50
2023-01-19T10:38:02.036Z,5.40
2023-01-19T10:40:35.444Z,5.30
2023-01-19T10:43:30.308Z,5.30
2023-01-19T10:45:59.888Z,5.20
2023-01-19T10:48:27.671Z,5.20
2023-01-19T10:51:15.992Z,5.20
2023-01-19T10:54:07.276Z,5.20
2023-01-19T10:56:45.292Z,5.20
2023-01-19T11:02:45.572Z,5.20
2023-01-19T11:05:37.127Z,5.20
2023-01-19T11:08:34.478Z,5.00
2023-01-19T11:11:13.890Z,5.60
2023-01-19T11:13:53.786Z,5.30
2023-01-19T11:16:28.647Z,5.30
2023-01-19T11:19:03.386Z,5.40
2023-01-19T11:21:32.231Z,5.60
2023-01-19T11:24:08.691Z,5.50
2023-01-19T11:26:41.721Z,5.50
2023-01-19T11:29:25.240Z,5.50
2023-01-19T11:31:54.334Z,5.60
2023-01-19T11:34:39.993Z,5.70
2023-01-19T11:37:19.340Z,5.50
2023-01-19T11:39:51.468Z,5.50
2023-01-19T11:42:19.854Z,5.50
2023-01-19T11:44:56.645Z,5.60
2023-01-19T11:47:45.080Z,5.70
2023-01-19T11:50:28.849Z,5.80
2023-01-19T11:53:04.843Z,5.70
2023-01-19T11:56:01.641Z,5.40
2023-01-19T11:58:32.926Z,5.60
2023-01-19T12:01:26.138Z,5.50
2023-01-19T12:04:17.124Z,5.60
2023-01-19T12:06:54.075Z,5.40
2023-01-19T12:09:24.915Z,5.50
2023-01-19T12:12:05.127Z,5.60
2023-01-19T12:14:38.930Z,5.50
2023-01-19T12:17:14.309Z,5.50
2023-01-19T12:19:46.674Z,5.50
2023-01-19T12:22:18.092Z,5.60
2023-01-19T12:24:55.819Z,5.50
2023-01-19T12:27:40.556Z,5.70
2023-01-19T12:30:28.127Z,5.60
2023-01-19T12:33:35.973Z,5.60
2023-01-19T12:36:24.908Z,5.70
2023-01-19T12:39:04.345Z,5.70
2023-01-19T12:41:36.897Z,5.80
2023-01-19T12:44:14.673Z,6.00
2023-01-19T12:46:57.858Z,5.80
2023-01-19T12:49:38.912Z,5.90
2023-01-19T12:52:17.796Z,5.60
2023-01-19T12:55:09.499Z,6.00
2023-01-19T12:57:41.998Z,5.90
2023-01-19T13:00:42.869Z,5.80
2023-01-19T13:03:19.112Z,5.80
2023-01-19T13:05:53.195Z,5.70
2023-01-19T13:08:22.431Z,5.80
2023-01-19T13:11:10.558Z,5.90
2023-01-19T13:13:40.109Z,6.00
2023-01-19T13:16:19.617Z,6.10
2023-01-19T13:18:49.822Z,6.10
2023-01-19T13:21:37.683Z,6.00
2023-01-19T13:24:09.039Z,5.90
2023-01-19T13:30:17.787Z,5.60
2023-01-19T13:32:45.027Z,5.60
2023-01-19T13:35:17.702Z,5.40
2023-01-19T13:37:45.230Z,5.30
2023-01-19T13:40:25.384Z,5.30
2023-01-19T13:42:54.000Z,5.30
2023-01-19T13:45:33.786Z,5.30
2023-01-19T13:48:05.044Z,5.30
2023-01-19T13:50:35.224Z,5.50
2023-01-19T13:53:04.631Z,5.20
2023-01-19T13:55:31.904Z,5.20
2023-01-19T13:57:59.037Z,5.10
2023-01-19T14:00:28.528Z,5.00
2023-01-19T14:03:18.629Z,5.00
2023-01-19T14:05:45.830Z,5.00
2023-01-19T14:08:15.187Z,5.00
2023-01-19T14:11:02.336Z,5.00
2023-01-19T14:13:42.204Z,5.00
2023-01-19T14:16:17.306Z,4.90
2023-01-19T14:18:44.193Z,4.80
2023-01-19T14:21:13.764Z,4.80
2023-01-19T14:23:51.978Z,4.70
2023-01-19T14:26:38.060Z,4.60
2023-01-19T14:29:18.972Z,4.40
2023-01-19T14:32:05.228Z,4.30
2023-01-19T14:34:39.116Z,4.30
2023-01-19T14:37:18.275Z,4.30
2023-01-19T14:39:48.014Z,4.30
2023-01-19T14:42:23.609Z,4.30
2023-01-19T14:44:53.154Z,4.30
2023-01-19T14:47:32.732Z,4.50
2023-01-19T14:50:25.787Z,4.40
2023-01-19T14:53:07.236Z,4.30
2023-01-19T14:55:36.490Z,4.50
2023-01-19T14:58:12.389Z,4.40
2023-01-19T15:00:41.052Z,4.30
2023-01-19T15:03:11.028Z,4.60
2023-01-19T15:05:46.181Z,4.60
2023-01-19T15:08:29.995Z,4.30
2023-01-19T15:10:58.177Z,4.30
2023-01-19T15:13:26.796Z,4.30
2023-01-19T15:15:53.986Z,4.30
2023-01-19T15:18:25.565Z,4.20
2023-01-19T15:20:55.095Z,4.20
2023-01-19T15:23:22.000Z,4.20
2023-01-19T15:25:50.468Z,4.20
2023-01-19T15:28:19.854Z,4.30
2023-01-19T15:30:46.880Z,4.30
2023-01-19T15:33:25.352Z,4.30
2023-01-19T15:35:53.428Z,4.30
2023-01-19T15:38:20.386Z,4.30
2023-01-19T15:40:51.683Z,4.40
2023-01-19T15:43:20.115Z,4.30
2023-01-19T15:46:02.589Z,4.30
2023-01-19T15:48:29.679Z,4.30
2023-01-19T15:50:56.584Z,4.30
2023-01-19T15:53:24.196Z,4.30
2023-01-19T15:55:55.127Z,4.30
2023-01-19T15:58:23.419Z,4.30
2023-01-19T16:00:55.629Z,4.30
2023-01-19T16:03:23.040Z,4.30
2023-01-19T16:05:49.991Z,4.30
2023-01-19T16:08:17.488Z,4.30
2023-01-19T16:10:44.441Z,4.30
2023-01-19T16:13:11.790Z,4.20
2023-01-19T16:15:40.105Z,4.20
2023-01-19T16:18:07.103Z,4.20
2023-01-19T16:20:34.109Z,4.20
2023-01-19T16:23:16.248Z,4.10
2023-01-19T16:25:43.694Z,4.10
2023-01-19T16:28:10.591Z,4.00
2023-01-19T16:30:37.574Z,3.90
2023-01-19T16:33:05.254Z,3.80
2023-01-19T16:35:32.187Z,3.70
2023-01-19T16:37:59.032Z,3.60
2023-01-19T16:40:26.327Z,3.50
2023-01-19T16:42:53.206Z,3.50
2023-01-19T16:45:20.079Z,3.40
2023-01-19T16:47:50.468Z,3.60
2023-01-19T16:50:17.410Z,3.40
2023-01-19T16:52:45.149Z,3.40
2023-01-19T16:55:12.178Z,3.30
2023-01-19T16:57:39.218Z,3.30
2023-01-19T17:00:09.480Z,3.20
2023-01-19T17:02:36.626Z,3.20
2023-01-19T17:05:04.157Z,3.20
2023-01-19T17:07:31.304Z,3.20
2023-01-19T17:09:58.145Z,3.10
2023-01-19T17:12:25.147Z,3.10
2023-01-19T17:14:52.019Z,3.10
2023-01-19T17:17:18.921Z,3.00
2023-01-19T17:19:46.031Z,3.00
2023-01-19T17:22:14.263Z,3.00
2023-01-19T17:24:43.377Z,3.00
2023-01-19T17:27:10.412Z,2.90
2023-01-19T17:29:37.294Z,2.90
2023-01-19T17:32:04.492Z,2.80
2023-01-19T17:34:31.442Z,2.80
2023-01-19T17:37:03.105Z,2.80
2023-01-19T17:39:32.691Z,2.70
2023-01-19T17:42:00.382Z,2.70
2023-01-19T17:44:28.485Z,2.70
2023-01-19T17:46:59.126Z,2.60
2023-01-19T17:49:27.400Z,2.80
2023-01-19T17:51:55.820Z,2.60
2023-01-19T17:54:23.188Z,2.60
2023-01-19T17:56:53.317Z,2.60
2023-01-19T17:59:25.308Z,2.70
2023-01-19T18:01:52.455Z,2.70
2023-01-19T18:04:21.637Z,2.60
2023-01-19T18:06:51.128Z,2.70
2023-01-19T18:09:24.439Z,2.50
2023-01-19T18:12:03.764Z,2.50
2023-01-19T18:14:39.105Z,2.60
2023-01-19T18:17:10.225Z,2.50
2023-01-19T18:22:39.541Z,2.50
2023-01-19T18:25:07.005Z,2.40
2023-01-19T18:27:34.140Z,2.40
2023-01-19T18:30:01.339Z,2.40
2023-01-19T18:32:28.471Z,2.40
2023-01-19T18:34:55.536Z,2.40
2023-01-19T18:37:22.918Z,2.40
2023-01-19T18:40:21.249Z,2.30
2023-01-19T18:43:02.397Z,2.20
2023-01-19T18:45:31.431Z,2.30
2023-01-19T18:48:02.081Z,2.50
2023-01-19T18:50:31.602Z,2.40
2023-01-19T19:05:22.984Z,2.20
2023-01-19T19:07:55.784Z,2.20
2023-01-19T19:10:25.941Z,2.20
2023-01-19T19:13:05.572Z,2.10
2023-01-19T19:15:33.973Z,2.10
2023-01-19T19:23:48.726Z,2.00
2023-01-19T19:29:22.671Z,2.00
2023-01-19T19:31:53.534Z,2.00
2023-01-19T19:34:28.720Z,2.00
2023-01-19T19:37:01.639Z,1.90
2023-01-19T19:39:30.122Z,1.90
2023-01-19T19:42:02.424Z,1.90
2023-01-19T19:47:12.737Z,1.90
2023-01-19T19:52:43.261Z,2.00
2023-01-19T19:58:18.839Z,1.90
2023-01-19T20:03:58.999Z,1.80
2023-01-19T20:06:27.941Z,1.80
2023-01-19T20:09:00.132Z,1.90
2023-01-19T20:44:08.708Z,1.50
2023-01-19T20:46:36.414Z,1.50
2023-01-19T20:49:12.654Z,1.60
2023-01-19T20:51:43.631Z,1.50
2023-01-19T20:54:12.142Z,1.50
2023-01-19T21:06:19.269Z,1.40
2023-01-19T21:08:58.087Z,1.40
2023-01-19T21:11:29.257Z,1.50
2023-01-19T21:16:52.216Z,1.40
2023-01-19T21:27:57.388Z,1.50
2023-01-19T21:30:24.593Z,1.60
2023-01-19T21:35:56.156Z,1.60
2023-01-19T21:38:26.808Z,1.60
2023-01-19T21:40:58.101Z,1.40
2023-01-19T21:43:31.882Z,1.60
2023-01-19T21:46:23.471Z,1.40
2023-01-19T21:48:50.565Z,1.60
2023-01-19T21:51:17.571Z,1.70
2023-01-19T21:53:45.160Z,1.60
2023-01-19T21:56:12.874Z,1.60
2023-01-19T21:58:39.923Z,1.60
2023-01-19T22:03:56.876Z,1.50
2023-01-19T22:06:25.382Z,1.30
2023-01-19T22:08:53.204Z,1.40
2023-01-19T22:11:21.769Z,1.50
2023-01-19T22:13:48.836Z,1.40
2023-01-19T22:16:18.918Z,1.50
2023-01-19T22:18:50.952Z,1.60
2023-01-19T22:21:27.253Z,1.40
2023-01-19T22:23:56.829Z,1.40
2023-01-19T22:26:24.247Z,1.60
2023-01-19T22:28:56.006Z,1.40
2023-01-19T22:31:24.486Z,1.40
2023-01-19T22:33:52.312Z,1.60
2023-01-19T22:36:25.131Z,1.40
2023-01-19T22:39:03.251Z,1.50
2023-01-19T22:41:33.641Z,1.60
2023-01-19T22:44:03.704Z,1.40
2023-01-19T22:46:34.121Z,1.50
2023-01-19T22:49:02.223Z,1.50
2023-01-19T22:51:30.864Z,1.50
2023-01-19T22:54:00.935Z,1.50
2023-01-19T22:56:30.771Z,1.70
2023-01-19T22:58:58.550Z,1.50
2023-01-19T23:01:28.338Z,1.60
2023-01-19T23:03:55.974Z,1.60
2023-01-19T23:06:25.983Z,1.50
2023-01-19T23:08:55.109Z,1.50
2023-01-19T23:11:25.146Z,1.60
2023-01-19T23:13:52.615Z,1.60
2023-01-19T23:16:20.254Z,1.50
2023-01-19T23:18:48.064Z,1.60
2023-01-19T23:21:17.887Z,1.60
2023-01-19T23:23:45.948Z,1.40
2023-01-19T23:26:14.575Z,1.50
2023-01-19T23:28:44.942Z,1.60
2023-01-19T23:31:22.373Z,1.70
2023-01-19T23:34:00.778Z,1.50
2023-01-19T23:36:29.668Z,1.50
2023-01-19T23:38:59.534Z,1.70
2023-01-19T23:41:28.857Z,1.70
2023-01-19T23:43:55.808Z,1.50
2023-01-19T23:46:22.923Z,1.50
2023-01-19T23:48:50.511Z,1.70
2023-01-19T23:51:20.883Z,1.40
2023-01-19T23:53:48.720Z,1.50
2023-01-19T23:56:19.033Z,1.60
2023-01-19T23:58:48.031Z,1.50
